Time;durP1;ratioP1;P1;durP2;ratioP2;P2;SDS_P1;SDS_P2;PMS_P1;PMS_P2;Temp;Humidity;BMP_temperature;BMP_pressure;BME280_temperature;BME280_humidity;BME280_pressure;Samples;Min_cycle;Max_cycle;Signal;HPM_P1;HPM_P2
2021/07/11 00:01:13;;;;;;;4.45;2.72;;;;;;;17.75;87.78;99824.81;2215362;40;20042;-85
2021/07/11 00:02:44;;;;;;;4.10;2.60;;;;;;;17.76;87.92;99816.50;2214865;40;20034;-85
2021/07/11 00:04:16;;;;;;;4.65;2.50;;;;;;;17.75;87.89;99820.25;2215643;40;20039;-85
2021/07/11 00:05:48;;;;;;;4.45;2.55;;;;;;;17.76;87.64;99810.25;2215501;40;20041;-87
2021/07/11 00:07:19;;;;;;;5.15;2.58;;;;;;;17.77;87.55;99811.91;2215626;40;20030;-85
2021/07/11 00:08:51;;;;;;;5.22;2.40;;;;;;;17.75;87.53;99806.72;2215715;40;20037;-87
2021/07/11 00:10:22;;;;;;;4.53;2.70;;;;;;;17.73;87.48;99794.44;2215826;40;20025;-87
2021/07/11 00:11:54;;;;;;;4.22;2.70;;;;;;;17.75;87.33;99800.50;2208872;40;20034;-86
2021/07/11 00:13:26;;;;;;;4.50;2.30;;;;;;;17.71;87.02;99800.03;2208996;40;20042;-84
2021/07/11 00:14:58;;;;;;;5.30;2.30;;;;;;;17.69;86.30;99804.81;2208876;40;20037;-83
2021/07/11 00:16:32;;;;;;;4.68;2.65;;;;;;;17.67;85.96;99800.63;2208042;40;20038;-84
2021/07/11 00:18:05;;;;;;;4.00;2.22;;;;;;;17.68;85.88;99802.28;2208692;40;20046;-85
2021/07/11 00:19:37;;;;;;;4.43;2.20;;;;;;;17.67;85.65;99804.19;2209761;40;20039;-84
2021/07/11 00:21:08;;;;;;;5.38;2.08;;;;;;;17.65;85.23;99802.72;2209363;40;20050;-86
2021/07/11 00:22:40;;;;;;;5.68;2.35;;;;;;;17.66;85.36;99798.97;2209237;40;20068;-84
2021/07/11 00:24:12;;;;;;;3.83;2.28;;;;;;;17.64;85.11;99796.44;2209091;40;20027;-86
2021/07/11 00:25:44;;;;;;;4.70;1.95;;;;;;;17.63;85.06;99805.59;2209639;40;20451;-85
2021/07/11 00:27:15;;;;;;;4.63;2.33;;;;;;;17.63;84.37;99811.00;2209529;40;20046;-88
2021/07/11 00:28:47;;;;;;;4.30;1.95;;;;;;;17.67;84.49;99811.44;2209803;40;20026;-86
2021/07/11 00:30:19;;;;;;;3.58;2.10;;;;;;;17.63;83.59;99811.00;2210041;40;20041;-86
2021/07/11 00:31:52;;;;;;;4.72;2.17;;;;;;;17.61;84.00;99813.91;2215528;40;20049;-88
2021/07/11 00:33:24;;;;;;;3.42;1.88;;;;;;;17.60;83.84;99814.94;2215945;40;20018;-87
2021/07/11 00:34:56;;;;;;;4.35;1.90;;;;;;;17.54;83.77;99807.63;2215914;40;20709;-86
2021/07/11 00:36:30;;;;;;;4.55;1.85;;;;;;;17.55;83.75;99812.00;2216091;40;20401;-87
2021/07/11 00:38:03;;;;;;;5.60;2.00;;;;;;;17.56;83.98;99813.66;2215901;40;20037;-89
2021/07/11 00:39:35;;;;;;;4.50;2.00;;;;;;;17.54;84.02;99810.31;2215859;40;20077;-88
2021/07/11 00:41:08;;;;;;;3.92;1.90;;;;;;;17.50;83.82;99819.84;2215441;40;20010;-86
2021/07/11 00:42:41;;;;;;;5.35;1.80;;;;;;;17.49;83.71;99811.94;2216239;40;20038;-86
2021/07/11 00:44:14;;;;;;;4.30;2.17;;;;;;;17.49;83.79;99814.63;2215828;40;20050;-88
2021/07/11 00:45:44;;;;;;;6.57;1.85;;;;;;;17.47;83.83;99812.16;2215931;40;20026;-89
2021/07/11 00:47:20;;;;;;;3.92;1.92;;;;;;;17.47;83.53;99801.34;2215957;40;20022;-88
2021/07/11 00:48:54;;;;;;;3.97;1.88;;;;;;;17.46;83.43;99805.88;2216118;40;20022;-90
2021/07/11 00:50:27;;;;;;;4.15;1.65;;;;;;;17.48;83.61;99808.38;2215755;40;20478;-88
2021/07/11 00:51:58;;;;;;;4.53;1.98;;;;;;;17.48;83.76;99805.69;2215748;40;20050;-88
2021/07/11 00:53:30;;;;;;;3.88;1.80;;;;;;;17.51;84.06;99816.09;2215651;40;20038;-85
2021/07/11 00:55:03;;;;;;;5.97;2.05;;;;;;;17.52;83.94;99804.28;2216250;40;20034;-86
2021/07/11 00:56:35;;;;;;;4.07;2.03;;;;;;;17.50;83.75;99803.63;2216656;40;20025;-86
2021/07/11 00:58:08;;;;;;;5.90;2.00;;;;;;;17.48;83.73;99805.69;2216470;40;20042;-84
2021/07/11 00:59:39;;;;;;;3.47;2.00;;;;;;;17.44;84.15;99807.13;2216572;40;20090;-85
2021/07/11 01:01:17;;;;;;;3.42;1.60;;;;;;;17.41;83.99;99804.81;2216541;40;20041;-85
2021/07/11 01:02:55;;;;;;;3.97;1.67;;;;;;;17.39;84.06;99809.56;2216473;40;20037;-90
2021/07/11 01:04:32;;;;;;;4.68;1.60;;;;;;;17.40;83.96;99805.81;2215947;40;20059;-84
2021/07/11 01:06:07;;;;;;;3.80;2.10;;;;;;;17.37;84.08;99811.66;2216778;40;20018;-85
2021/07/11 01:07:46;;;;;;;4.72;2.10;;;;;;;17.31;84.12;99813.25;2216366;40;20034;-87
2021/07/11 01:09:26;;;;;;;5.88;1.88;;;;;;;17.28;83.95;99817.19;2216143;40;20566;-87
2021/07/11 01:11:02;;;;;;;3.60;1.93;;;;;;;17.27;84.15;99823.63;2216414;40;20026;-87
2021/07/11 01:12:40;;;;;;;5.32;1.80;;;;;;;17.33;84.07;99815.75;2216571;40;20237;-85
2021/07/11 01:14:15;;;;;;;3.33;1.50;;;;;;;17.32;84.03;99820.34;2216545;40;20032;-86
2021/07/11 01:15:50;;;;;;;4.25;1.92;;;;;;;17.33;83.97;99813.06;2216595;40;20364;-87
2021/07/11 01:17:25;;;;;;;3.50;1.90;;;;;;;17.28;84.17;99825.28;2216608;40;20045;-85
2021/07/11 01:19:05;;;;;;;4.68;2.05;;;;;;;17.31;83.87;99829.47;2216603;40;20034;-85
2021/07/11 01:20:42;;;;;;;5.03;1.70;;;;;;;17.27;84.10;99812.81;2216720;40;20038;-85
2021/07/11 01:22:15;;;;;;;5.13;1.90;;;;;;;17.27;84.20;99828.16;2216795;40;20026;-88
2021/07/11 01:23:51;;;;;;;4.80;2.20;;;;;;;17.27;83.93;99830.88;2216464;40;20029;-88
2021/07/11 01:25:38;;;;;;;4.60;1.80;;;;;;;17.29;83.79;99831.50;2216489;40;20498;-87
2021/07/11 01:27:09;;;;;;;3.35;1.40;;;;;;;17.25;84.18;99833.78;2213045;40;20026;-86
2021/07/11 01:28:42;;;;;;;4.07;1.63;;;;;;;17.22;84.30;99831.44;2216824;40;20018;-86
2021/07/11 01:30:14;;;;;;;3.50;1.77;;;;;;;17.19;84.14;99826.47;2216342;40;20026;-86
2021/07/11 01:31:47;;;;;;;3.63;2.00;;;;;;;17.18;84.50;99822.06;2216140;40;20136;-86
2021/07/11 01:33:21;;;;;;;3.80;1.88;;;;;;;17.26;84.38;99816.53;2215923;40;20030;-85
2021/07/11 01:34:53;;;;;;;4.07;1.98;;;;;;;17.27;84.24;99820.91;2216384;40;20033;-85
2021/07/11 01:36:27;;;;;;;5.57;2.40;;;;;;;17.27;84.02;99820.06;2216252;40;20015;-85
2021/07/11 01:37:59;;;;;;;5.15;2.45;;;;;;;17.23;84.19;99816.91;2216508;40;20022;-86
2021/07/11 01:39:32;;;;;;;4.53;2.17;;;;;;;17.19;83.99;99822.91;2216423;40;20555;-86
2021/07/11 01:41:06;;;;;;;5.68;3.70;;;;;;;17.21;84.06;99827.06;2216347;40;20022;-86
2021/07/11 01:42:39;;;;;;;5.80;2.80;;;;;;;17.27;84.09;99822.75;2216433;40;20502;-85
2021/07/11 01:44:19;;;;;;;4.75;2.10;;;;;;;17.26;83.97;99816.53;2216958;40;20032;-86
2021/07/11 01:45:53;;;;;;;5.20;2.10;;;;;;;17.22;83.82;99825.22;2216993;40;20041;-87
2021/07/11 01:47:26;;;;;;;5.22;2.33;;;;;;;17.21;83.74;99829.78;2216638;40;20253;-85
2021/07/11 01:49:00;;;;;;;4.00;1.90;;;;;;;17.21;83.81;99818.16;2216614;40;20046;-86
2021/07/11 01:50:31;;;;;;;5.13;1.98;;;;;;;17.20;83.82;99825.41;2216970;40;20037;-87
2021/07/11 01:52:04;;;;;;;4.20;2.00;;;;;;;17.20;83.69;99832.69;2216531;40;20045;-87
2021/07/11 01:53:39;;;;;;;4.70;2.05;;;;;;;17.17;83.89;99833.91;2215757;40;20038;-86
2021/07/11 01:55:12;;;;;;;4.90;1.90;;;;;;;17.14;83.81;99845.91;2216126;40;20432;-84
2021/07/11 01:56:45;;;;;;;3.33;1.58;;;;;;;17.11;83.91;99826.56;2216288;40;20037;-85
2021/07/11 01:58:17;;;;;;;4.68;1.70;;;;;;;17.10;83.51;99833.84;2215951;40;20562;-87
2021/07/11 01:59:49;;;;;;;3.90;1.83;;;;;;;17.09;83.71;99836.75;2217449;40;21824;-84
2021/07/11 02:01:21;;;;;;;4.25;2.03;;;;;;;17.06;83.98;99835.25;2222170;40;20825;-86
2021/07/11 02:02:53;;;;;;;3.30;1.90;;;;;;;17.06;83.83;99837.13;2222214;40;20037;-84
2021/07/11 02:04:25;;;;;;;3.80;1.80;;;;;;;17.08;83.56;99832.38;2221975;40;20026;-86
2021/07/11 02:05:57;;;;;;;4.90;1.90;;;;;;;17.12;83.66;99831.78;2222464;40;20201;-85
2021/07/11 02:07:28;;;;;;;4.47;2.10;;;;;;;17.13;83.59;99819.97;2222569;40;20617;-85
2021/07/11 02:09:00;;;;;;;3.78;1.88;;;;;;;17.19;83.46;99826.47;2222580;40;20042;-84
2021/07/11 02:10:32;;;;;;;3.63;1.80;;;;;;;17.21;83.64;99826.25;2222520;40;20041;-85
2021/07/11 02:12:06;;;;;;;3.20;1.80;;;;;;;17.23;83.73;99816.09;2216405;40;20104;-86
2021/07/11 02:13:47;;;;;;;4.45;2.13;;;;;;;17.25;83.56;99819.41;2216381;40;20040;-85
2021/07/11 02:15:19;;;;;;;3.22;1.60;;;;;;;17.22;83.64;99826.03;2216810;40;20045;-87
2021/07/11 02:16:57;;;;;;;3.50;1.58;;;;;;;17.22;83.64;99831.44;2216482;40;20046;-85
2021/07/11 02:18:30;;;;;;;4.10;2.25;;;;;;;17.22;83.59;99826.03;2216414;40;20037;-85
2021/07/11 02:20:03;;;;;;;3.92;1.88;;;;;;;17.20;83.61;99827.28;2215846;40;20080;-86
2021/07/11 02:21:35;;;;;;;4.63;1.88;;;;;;;17.20;83.69;99828.09;2216193;40;20030;-84
2021/07/11 02:23:07;;;;;;;4.32;2.20;;;;;;;17.20;83.72;99832.69;2216180;40;20022;-84
2021/07/11 02:24:40;;;;;;;5.03;2.03;;;;;;;17.21;83.79;99828.94;2216431;40;20029;-84
2021/07/11 02:26:12;;;;;;;3.75;1.75;;;;;;;17.21;83.76;99829.78;2215474;40;20029;-83
2021/07/11 02:27:47;;;;;;;4.25;1.80;;;;;;;17.24;83.73;99831.28;2216418;40;20030;-85
2021/07/11 02:29:19;;;;;;;6.13;2.30;;;;;;;17.21;83.65;99821.66;2216253;40;20034;-86
2021/07/11 02:30:53;;;;;;;5.28;2.13;;;;;;;17.21;83.63;99828.94;2216216;40;20061;-87
2021/07/11 02:32:30;;;;;;;3.95;1.90;;;;;;;17.20;83.79;99825.41;2216115;40;20046;-85
2021/07/11 02:34:02;;;;;;;4.53;2.08;;;;;;;17.23;83.71;99819.63;2216286;40;20022;-85
2021/07/11 02:35:38;;;;;;;4.70;1.85;;;;;;;17.21;83.73;99826.25;2216122;40;20503;-85
2021/07/11 02:37:14;;;;;;;3.65;1.80;;;;;;;17.18;83.63;99822.06;2216365;40;20112;-86
2021/07/11 02:38:52;;;;;;;3.95;1.92;;;;;;;17.19;83.96;99829.16;2216252;40;20030;-84
2021/07/11 02:40:24;;;;;;;7.82;2.35;;;;;;;17.20;83.84;99828.09;2216669;40;20026;-85
2021/07/11 02:42:00;;;;;;;3.83;1.90;;;;;;;17.16;83.79;99816.03;2216007;40;20018;-86
2021/07/11 02:43:35;;;;;;;4.13;2.00;;;;;;;17.18;83.95;99823.94;2215931;40;20095;-85
2021/07/11 02:45:08;;;;;;;4.97;2.20;;;;;;;17.20;83.82;99820.00;2215843;40;20541;-86
2021/07/11 02:46:44;;;;;;;4.40;2.10;;;;;;;17.16;83.60;99826.84;2214470;40;20026;-87
2021/07/11 02:48:16;;;;;;;4.20;2.20;;;;;;;17.14;83.65;99823.47;2216198;40;20037;-87
2021/07/11 02:49:53;;;;;;;5.10;2.10;;;;;;;17.16;83.51;99821.44;2216278;40;20033;-86
2021/07/11 02:51:27;;;;;;;5.35;2.45;;;;;;;17.14;83.97;99826.19;2216104;40;20030;-85
2021/07/11 02:52:59;;;;;;;3.75;1.80;;;;;;;17.10;83.60;99820.34;2216165;40;20286;-85
2021/07/11 02:54:36;;;;;;;3.97;1.90;;;;;;;17.12;83.63;99828.22;2216194;40;20030;-86
2021/07/11 02:56:11;;;;;;;3.67;1.92;;;;;;;17.12;83.57;99825.53;2216315;40;20022;-86
2021/07/11 02:57:47;;;;;;;5.38;2.10;;;;;;;17.12;83.63;99825.53;2216199;40;20079;-85
2021/07/11 02:59:22;;;;;;;6.28;2.08;;;;;;;17.10;83.69;99822.19;2216033;40;20033;-87
2021/07/11 03:00:55;;;;;;;3.90;1.90;;;;;;;17.09;83.61;99839.44;2214579;40;20026;-86
2021/07/11 03:02:27;;;;;;;4.60;2.03;;;;;;;17.08;83.61;99835.88;2216337;40;20635;-86
2021/07/11 03:04:02;;;;;;;4.03;2.17;;;;;;;17.08;83.88;99844.00;2216432;40;20441;-85
2021/07/11 03:05:34;;;;;;;4.85;2.20;;;;;;;17.06;83.75;99831.72;2215552;40;20038;-86
2021/07/11 03:07:06;;;;;;;3.60;1.77;;;;;;;17.06;83.58;99837.94;2215916;40;20018;-87
2021/07/11 03:08:39;;;;;;;4.18;2.08;;;;;;;17.08;83.78;99832.38;2216130;40;20026;-86
2021/07/11 03:10:11;;;;;;;5.35;2.20;;;;;;;17.08;83.91;99833.19;2216218;40;20024;-87
2021/07/11 03:11:45;;;;;;;4.57;1.85;;;;;;;17.08;83.84;99825.09;2216196;40;20019;-84
2021/07/11 03:13:18;;;;;;;5.80;2.30;;;;;;;17.09;83.77;99825.94;2216006;40;20022;-86
2021/07/11 03:14:53;;;;;;;7.90;2.90;;;;;;;17.07;83.88;99831.50;2216139;40;20030;-85
2021/07/11 03:16:25;;;;;;;6.90;2.58;;;;;;;17.06;83.61;99837.94;2215858;40;20570;-86
2021/07/11 03:17:59;;;;;;;6.00;2.35;;;;;;;17.04;83.82;99828.38;2216087;40;20449;-86
2021/07/11 03:19:35;;;;;;;7.07;2.30;;;;;;;17.05;83.51;99830.03;2216154;40;20011;-83
2021/07/11 03:21:08;;;;;;;4.22;2.00;;;;;;;17.08;83.66;99833.19;2216118;40;20073;-85
2021/07/11 03:22:41;;;;;;;4.65;2.10;;;;;;;17.08;83.80;99835.06;2216188;40;20026;-86
2021/07/11 03:24:14;;;;;;;4.35;2.08;;;;;;;17.10;83.66;99844.63;2216048;40;20030;-85
2021/07/11 03:25:53;;;;;;;3.67;1.90;;;;;;;17.09;83.41;99845.66;2216118;40;20617;-86
2021/07/11 03:27:28;;;;;;;4.10;1.88;;;;;;;17.10;83.83;99841.09;2216250;40;20467;-87
2021/07/11 03:28:59;;;;;;;4.55;2.10;;;;;;;17.11;83.88;99837.38;2216393;40;20026;-85
2021/07/11 03:30:37;;;;;;;6.00;2.78;;;;;;;17.10;83.57;99828.44;2216055;40;20034;-86
2021/07/11 03:32:11;;;;;;;6.70;2.50;;;;;;;17.11;83.54;99840.06;2215786;40;20501;-84
2021/07/11 03:33:45;;;;;;;4.53;2.28;;;;;;;17.11;83.40;99838.22;2215719;40;20022;-89
2021/07/11 03:35:23;;;;;;;10.68;2.70;;;;;;;17.10;83.77;99836.53;2216317;40;20037;-86
2021/07/11 03:36:57;;;;;;;3.65;1.80;;;;;;;17.11;83.62;99840.91;2216136;40;20029;-86
2021/07/11 03:38:36;;;;;;;7.05;2.45;;;;;;;17.14;83.67;99839.69;2216371;40;20022;-87
2021/07/11 03:40:09;;;;;;;7.32;2.55;;;;;;;17.12;83.66;99836.34;2214835;40;20551;-85
2021/07/11 03:41:42;;;;;;;7.75;2.08;;;;;;;17.13;83.56;99838.00;2216207;40;20029;-87
2021/07/11 03:43:16;;;;;;;7.90;2.55;;;;;;;17.15;83.47;99836.78;2216287;40;20022;-87
2021/07/11 03:44:53;;;;;;;4.78;2.20;;;;;;;17.13;83.34;99843.41;2216145;40;20045;-86
2021/07/11 03:46:29;;;;;;;5.90;2.33;;;;;;;17.16;83.65;99832.22;2216258;40;20014;-87
2021/07/11 03:48:06;;;;;;;5.53;2.58;;;;;;;17.12;83.63;99841.75;2211254;40;20248;-86
2021/07/11 03:49:40;;;;;;;4.20;2.30;;;;;;;17.08;83.42;99840.47;2216270;40;20025;-86
2021/07/11 03:51:11;;;;;;;6.53;2.10;;;;;;;17.05;83.60;99846.25;2222397;40;20017;-86
2021/07/11 03:52:49;;;;;;;7.57;2.10;;;;;;;17.08;83.50;99841.28;2222506;40;20029;-86
2021/07/11 03:54:21;;;;;;;5.75;2.95;;;;;;;17.11;83.56;99846.31;2222042;40;20036;-87
2021/07/11 03:55:56;;;;;;;5.65;2.95;;;;;;;17.10;83.42;99846.50;2222093;40;20017;-85
2021/07/11 03:57:29;;;;;;;5.90;2.40;;;;;;;17.11;83.43;99846.31;2220976;40;20026;-87
2021/07/11 03:59:01;;;;;;;6.63;2.38;;;;;;;17.09;83.74;99847.53;2222112;40;20034;-86
2021/07/11 04:00:33;;;;;;;4.03;2.20;;;;;;;17.09;83.52;99845.66;2221637;40;20029;-86
2021/07/11 04:02:07;;;;;;;5.25;2.50;;;;;;;17.20;83.13;99849.72;2218835;40;20044;-85
2021/07/11 04:03:43;;;;;;;4.97;2.85;;;;;;;17.26;82.94;99840.84;2221683;40;20029;-80
2021/07/11 04:05:17;;;;;;;5.72;3.08;;;;;;;17.25;83.26;99841.88;2220674;40;20448;-81
2021/07/11 04:06:53;;;;;;;6.53;2.40;;;;;;;17.22;83.20;99847.66;2221463;40;20393;-80
2021/07/11 04:08:26;;;;;;;5.07;2.63;;;;;;;17.20;82.88;99854.28;2222560;40;20625;-79
2021/07/11 04:09:59;;;;;;;5.85;2.70;;;;;;;17.20;82.86;99847.00;2217904;40;20033;-79
2021/07/11 04:11:34;;;;;;;4.22;2.40;;;;;;;17.17;82.90;99850.13;2219645;40;20321;-80
2021/07/11 04:13:06;;;;;;;5.50;2.05;;;;;;;17.15;83.04;99849.47;2221944;40;20033;-79
2021/07/11 04:14:39;;;;;;;4.10;2.30;;;;;;;17.13;83.15;99849.66;2221341;40;20328;-80
2021/07/11 04:16:12;;;;;;;7.45;2.53;;;;;;;17.15;82.99;99852.16;2221259;40;20036;-80
2021/07/11 04:17:50;;;;;;;4.72;2.00;;;;;;;17.15;82.86;99844.06;2224746;40;20032;-79
2021/07/11 04:19:24;;;;;;;8.70;2.65;;;;;;;17.20;82.85;99849.72;2221609;40;20029;-78
2021/07/11 04:21:01;;;;;;;5.22;2.60;;;;;;;17.18;82.84;99845.53;2223228;40;20041;-80
2021/07/11 04:22:33;;;;;;;5.15;2.13;;;;;;;17.15;82.83;99854.88;2215228;40;20025;-80
2021/07/11 04:24:07;;;;;;;5.38;2.70;;;;;;;17.15;83.22;99858.38;2219672;40;20026;-80
2021/07/11 04:25:41;;;;;;;6.50;2.67;;;;;;;17.11;83.20;99856.25;2214864;40;20041;-79
2021/07/11 04:27:14;;;;;;;4.47;2.55;;;;;;;17.09;82.89;99858.34;2217604;40;20045;-79
2021/07/11 04:28:50;;;;;;;4.55;2.60;;;;;;;17.07;83.09;99860.41;2221546;40;20029;-79
2021/07/11 04:30:22;;;;;;;3.90;2.20;;;;;;;17.07;83.02;99860.41;2222175;40;20025;-78
2021/07/11 04:31:54;;;;;;;4.03;2.10;;;;;;;17.03;83.33;99859.09;2221423;40;20401;-80
2021/07/11 04:33:30;;;;;;;4.22;2.28;;;;;;;17.04;83.02;99860.78;2221785;40;20036;-80
2021/07/11 04:35:04;;;;;;;5.35;2.40;;;;;;;17.03;83.38;99861.78;2222867;40;20026;-81
2021/07/11 04:36:37;;;;;;;4.47;2.40;;;;;;;17.03;83.27;99859.09;2222056;40;20072;-79
2021/07/11 04:38:10;;;;;;;5.65;2.53;;;;;;;17.00;83.43;99861.13;2221778;40;20021;-79
2021/07/11 04:39:42;;;;;;;5.55;2.20;;;;;;;17.00;83.29;99854.91;2221156;40;20025;-80
2021/07/11 04:41:14;;;;;;;5.45;2.40;;;;;;;17.01;83.44;99851.19;2223134;40;20048;-80
2021/07/11 04:42:47;;;;;;;5.15;2.63;;;;;;;17.05;83.31;99859.75;2221166;40;20058;-79
2021/07/11 04:44:19;;;;;;;3.88;2.00;;;;;;;17.00;83.27;99861.13;2220712;40;20033;-80
2021/07/11 04:45:51;;;;;;;4.07;2.08;;;;;;;16.98;83.11;99865.06;2218590;40;20033;-82
2021/07/11 04:47:23;;;;;;;4.53;2.40;;;;;;;17.00;83.33;99861.13;2220333;40;20083;-84
2021/07/11 04:48:56;;;;;;;9.32;3.13;;;;;;;17.02;83.38;99869.06;2212523;40;20034;-84
2021/07/11 04:50:27;;;;;;;6.50;2.60;;;;;;;17.02;83.26;99869.06;2201286;40;20037;-86
2021/07/11 04:51:59;;;;;;;5.38;2.60;;;;;;;17.08;83.18;99872.88;2215360;40;20038;-84
2021/07/11 04:53:32;;;;;;;4.47;2.05;;;;;;;17.10;83.08;99865.41;2215168;40;20037;-84
2021/07/11 04:55:05;;;;;;;7.07;3.25;;;;;;;17.10;83.30;99870.78;2215253;40;20026;-84
2021/07/11 04:56:38;;;;;;;4.72;2.28;;;;;;;17.08;83.25;99872.88;2215001;40;20044;-84
2021/07/11 04:58:10;;;;;;;4.68;2.42;;;;;;;17.09;83.21;99883.47;2215486;40;20041;-86
2021/07/11 04:59:42;;;;;;;4.22;2.13;;;;;;;17.12;83.12;99876.84;2214771;40;20046;-85
2021/07/11 05:01:14;;;;;;;4.55;1.77;;;;;;;17.14;82.76;99878.31;2215297;40;20041;-86
2021/07/11 05:02:46;;;;;;;5.13;2.47;;;;;;;17.17;82.64;99879.81;2214880;40;20372;-84
2021/07/11 05:04:18;;;;;;;3.75;2.10;;;;;;;17.13;82.51;99879.38;2215187;40;20026;-85
2021/07/11 05:05:50;;;;;;;4.30;2.25;;;;;;;17.12;82.90;99880.41;2215326;40;20049;-86
2021/07/11 05:07:22;;;;;;;4.63;2.47;;;;;;;17.15;82.60;99879.16;2215245;40;20050;-86
2021/07/11 05:08:52;;;;;;;4.95;2.22;;;;;;;17.15;82.90;99879.16;2215792;40;20049;-86
2021/07/11 05:10:24;;;;;;;6.30;2.38;;;;;;;17.17;82.72;99885.22;2215214;40;20062;-84
2021/07/11 05:11:56;;;;;;;6.88;2.33;;;;;;;17.17;82.66;99881.66;2215273;40;20037;-85
2021/07/11 05:13:28;;;;;;;4.50;2.08;;;;;;;17.14;82.45;99888.31;2214731;40;20045;-83
2021/07/11 05:14:59;;;;;;;6.57;2.58;;;;;;;17.18;82.66;99883.34;2215226;40;20042;-84
2021/07/11 05:16:32;;;;;;;5.45;2.30;;;;;;;17.20;82.62;99882.13;2214353;40;20027;-85
2021/07/11 05:18:04;;;;;;;5.10;2.60;;;;;;;17.20;82.42;99890.22;2214237;40;20032;-86
2021/07/11 05:19:37;;;;;;;5.55;2.40;;;;;;;17.20;82.37;99887.53;2215321;40;20030;-82
2021/07/11 05:21:08;;;;;;;4.30;2.22;;;;;;;17.22;82.61;99893.56;2214933;40;20037;-85
2021/07/11 05:22:40;;;;;;;4.82;2.10;;;;;;;17.18;82.20;99888.75;2215405;40;20030;-86
2021/07/11 05:24:11;;;;;;;4.53;2.42;;;;;;;17.17;82.42;99890.63;2215387;40;20033;-84
2021/07/11 05:25:43;;;;;;;6.38;2.08;;;;;;;17.20;82.45;99892.09;2215417;40;20030;-84
2021/07/11 05:27:16;;;;;;;4.25;2.50;;;;;;;17.22;82.39;99901.69;2215304;40;20512;-84
2021/07/11 05:28:48;;;;;;;5.43;2.50;;;;;;;17.21;81.98;99894.59;2215341;40;20036;-85
2021/07/11 05:30:21;;;;;;;6.55;2.28;;;;;;;17.17;82.02;99898.72;2215508;40;20049;-84
2021/07/11 05:31:55;;;;;;;5.68;2.45;;;;;;;17.17;81.64;99896.03;2215427;40;20049;-87
2021/07/11 05:33:25;;;;;;;6.38;2.60;;;;;;;17.17;81.76;99897.88;2217118;40;20027;-86
2021/07/11 05:34:58;;;;;;;5.22;2.25;;;;;;;17.19;82.09;99896.69;2215721;40;20050;-84
2021/07/11 05:36:30;;;;;;;4.47;2.10;;;;;;;17.21;81.84;99889.19;2215317;40;20068;-85
2021/07/11 05:38:01;;;;;;;4.63;2.22;;;;;;;17.24;82.00;99896.09;2215330;40;20616;-86
2021/07/11 05:39:33;;;;;;;3.83;2.33;;;;;;;17.27;81.59;99893.84;2215629;40;20096;-87
2021/07/11 06:16:00;;;;;;;6.22;2.35;;;;;;;17.70;78.73;99895.69;2220524;40;20044;-82
2021/07/11 06:17:32;;;;;;;3.97;1.90;;;;;;;17.75;78.74;99906.75;2195346;40;20053;-85
2021/07/11 06:19:04;;;;;;;8.65;2.30;;;;;;;17.74;78.42;99898.84;2196904;40;20050;-82
2021/07/11 06:22:22;;;;;;;6.15;2.45;;;;;;;17.69;77.65;99903.97;2209035;40;20572;-88
2021/07/11 06:23:54;;;;;;;5.40;2.40;;;;;;;17.68;77.83;99907.72;2207412;40;20054;-83
2021/07/11 06:25:26;;;;;;;8.18;2.45;;;;;;;17.66;77.34;99912.50;2208294;40;20369;-84
2021/07/11 06:26:57;;;;;;;6.10;2.10;;;;;;;17.65;77.39;99911.66;2205568;40;20035;-83
2021/07/11 06:28:29;;;;;;;7.38;2.40;;;;;;;17.66;77.05;99909.78;2204965;40;20039;-84
2021/07/11 06:30:00;;;;;;;5.00;2.05;;;;;;;17.72;76.86;99912.53;2204488;40;20041;-83
2021/07/11 06:31:34;;;;;;;6.85;2.35;;;;;;;17.67;76.60;99906.03;2206250;40;20038;-83
2021/07/11 06:33:06;;;;;;;9.13;2.70;;;;;;;17.74;76.42;99904.25;2206818;40;20038;-83
2021/07/11 06:34:38;;;;;;;6.97;2.00;;;;;;;17.78;76.55;99910.91;2207825;40;20126;-83
2021/07/11 06:36:09;;;;;;;4.20;2.10;;;;;;;17.79;76.30;99915.28;2206857;40;20042;-83
2021/07/11 06:37:42;;;;;;;5.47;2.17;;;;;;;17.75;76.22;99920.25;2213193;40;20049;-84
2021/07/11 06:39:14;;;;;;;5.53;2.10;;;;;;;17.74;76.26;99915.88;2213480;40;20034;-82
2021/07/11 06:44:42;;;;;;;5.32;2.40;;;;;;;17.62;76.63;99912.03;2189944;40;20048;-86
2021/07/11 06:46:35;;;;;;;4.82;2.30;;;;;;;17.62;76.43;99920.97;2190968;40;20043;-85
2021/07/11 06:48:10;;;;;;;4.20;2.40;;;;;;;17.64;76.60;99925.38;2189884;40;20040;-84
2021/07/11 06:49:42;;;;;;;5.68;2.58;;;;;;;17.64;76.27;99925.38;2187645;40;20040;-86
2021/07/11 06:51:14;;;;;;;5.35;2.90;;;;;;;17.67;76.48;99922.25;2185859;40;20089;-83
2021/07/11 06:52:45;;;;;;;6.50;2.47;;;;;;;17.71;76.33;99920.84;2199923;40;20034;-83
2021/07/11 06:54:17;;;;;;;7.35;2.70;;;;;;;17.74;76.09;99923.16;2205334;40;20059;-82
2021/07/11 06:55:50;;;;;;;7.05;2.42;;;;;;;17.69;76.11;99917.50;2204898;40;20318;-84
2021/07/11 06:57:21;;;;;;;5.30;2.40;;;;;;;17.74;76.08;99923.16;2204458;40;20487;-81
2021/07/11 06:58:53;;;;;;;5.03;2.20;;;;;;;17.76;76.03;99921.09;2205653;40;20049;-83
2021/07/11 07:00:30;;;;;;;5.35;2.45;;;;;;;17.76;76.40;99927.34;2205420;40;20050;-84
2021/07/11 07:02:03;;;;;;;5.78;2.70;;;;;;;17.82;75.99;99920.31;2206643;40;20092;-85
2021/07/11 07:05:25;;;;;;;3.88;2.10;;;;;;;17.87;75.78;99925.97;2203403;40;20049;-86
2021/07/11 07:06:56;;;;;;;3.88;2.28;;;;;;;17.95;75.43;99932.28;2205605;40;20109;-83
2021/07/11 07:08:28;;;;;;;4.20;2.40;;;;;;;17.88;75.63;99922.22;2206839;40;20042;-85
2021/07/11 07:12:40;;;;;;;6.25;2.40;;;;;;;17.88;75.67;99922.22;2183156;40;20052;-85
2021/07/11 07:14:15;;;;;;;4.80;2.30;;;;;;;17.91;75.13;99915.59;2208125;40;20023;-86
2021/07/11 07:15:50;;;;;;;7.18;2.28;;;;;;;17.87;75.22;99919.75;2209648;40;20054;-86
2021/07/11 07:17:33;;;;;;;6.45;2.15;;;;;;;17.89;75.04;99920.38;2209344;40;20035;-86
2021/07/11 07:19:10;;;;;;;4.00;2.30;;;;;;;17.89;74.87;99923.91;2209154;40;20030;-84
2021/07/11 07:20:42;;;;;;;5.60;2.30;;;;;;;17.92;74.68;99919.97;2208847;40;20030;-85
2021/07/11 07:22:15;;;;;;;7.75;3.10;;;;;;;17.98;74.54;99924.66;2211077;40;20142;-83
2021/07/11 07:23:47;;;;;;;7.13;2.50;;;;;;;18.02;73.82;99922.38;2212370;40;20074;-81
2021/07/11 07:25:19;;;;;;;6.03;2.25;;;;;;;18.01;74.14;99920.72;2214406;40;20040;-83
2021/07/11 07:26:50;;;;;;;6.53;2.40;;;;;;;18.08;74.04;99922.44;2211452;40;20466;-82
2021/07/11 07:28:22;;;;;;;5.15;2.22;;;;;;;18.18;73.73;99918.53;2211293;40;20094;-84
2021/07/11 07:29:53;;;;;;;5.47;2.70;;;;;;;18.27;73.50;99919.22;2210606;40;20057;-82
2021/07/11 07:31:25;;;;;;;5.38;2.30;;;;;;;18.31;73.28;99926.72;2212353;40;20044;-83
2021/07/11 07:32:58;;;;;;;4.75;2.15;;;;;;;18.34;73.32;99930.91;2211961;40;20052;-81
2021/07/11 07:34:30;;;;;;;5.78;2.10;;;;;;;18.31;73.37;99921.31;2212122;40;20468;-81
2021/07/11 07:36:02;;;;;;;6.10;2.38;;;;;;;18.23;73.08;99935.00;2212072;40;20038;-82
2021/07/11 07:37:36;;;;;;;4.35;2.20;;;;;;;18.20;73.49;99922.72;2213006;40;20026;-82
2021/07/11 07:39:12;;;;;;;4.53;2.03;;;;;;;18.16;73.16;99929.53;2208532;40;20045;-83
2021/07/11 07:40:44;;;;;;;3.90;2.13;;;;;;;18.16;73.63;99923.31;2207070;40;20027;-82
2021/07/11 07:42:16;;;;;;;4.90;2.33;;;;;;;18.23;73.40;99930.41;2207342;40;20041;-81
2021/07/11 07:43:48;;;;;;;6.10;2.35;;;;;;;18.33;73.24;99932.78;2211706;40;20037;-82
2021/07/11 07:45:20;;;;;;;4.38;1.90;;;;;;;18.31;73.04;99932.13;2213271;40;20041;-81
2021/07/11 07:46:53;;;;;;;7.07;2.22;;;;;;;18.38;73.13;99940.31;2208391;40;20143;-81
2021/07/11 07:48:26;;;;;;;7.32;2.20;;;;;;;18.40;72.76;99936.38;2211599;40;20045;-80
2021/07/11 07:51:44;;;;;;;4.47;2.00;;;;;;;18.51;72.63;99940.41;2190218;40;20039;-82
2021/07/11 07:53:17;;;;;;;6.25;2.55;;;;;;;18.52;72.09;99942.03;2210064;40;20792;-82
2021/07/11 07:54:49;;;;;;;4.30;2.08;;;;;;;18.49;71.79;99933.50;2213024;40;20100;-82
2021/07/11 07:56:21;;;;;;;5.03;2.47;;;;;;;18.60;71.62;99932.13;2213118;40;20037;-84
2021/07/11 07:57:53;;;;;;;3.97;2.10;;;;;;;18.71;71.25;99934.22;2207943;40;20034;-84
2021/07/11 07:59:24;;;;;;;7.30;2.28;;;;;;;18.89;70.71;99946.41;2208441;40;20050;-83
2021/07/11 08:00:55;;;;;;;6.20;2.38;;;;;;;19.09;70.07;99938.38;2208767;40;20542;-82
2021/07/11 08:02:28;;;;;;;3.80;2.10;;;;;;;19.28;69.13;99931.31;2207665;40;20096;-82
2021/07/11 08:04:03;;;;;;;5.43;2.30;;;;;;;19.40;68.68;99929.69;2213649;40;20038;-82
2021/07/11 08:05:35;;;;;;;4.00;1.90;;;;;;;19.60;68.47;99932.44;2213549;40;20122;-83
2021/07/11 08:07:07;;;;;;;4.88;2.13;;;;;;;19.76;67.92;99927.66;2211355;40;20034;-80